createdAt,value
2023-03-11T00:02:11.690Z,62.85
2023-03-11T00:04:41.859Z,62.79
2023-03-11T00:07:13.847Z,62.72
2023-03-11T00:09:44.013Z,62.81
2023-03-11T00:12:16.643Z,63.28
2023-03-11T00:14:46.798Z,63.51
2023-03-11T00:17:16.909Z,63.66
2023-03-11T00:19:46.929Z,63.69
2023-03-11T00:22:17.018Z,63.48
2023-03-11T00:24:47.062Z,63.49
2023-03-11T00:27:19.705Z,63.01
2023-03-11T00:29:49.826Z,62.49
2023-03-11T00:32:20.250Z,62.53
2023-03-11T00:34:50.256Z,62.69
2023-03-11T00:37:21.619Z,62.66
2023-03-11T00:39:51.593Z,62.66
2023-03-11T00:42:24.312Z,62.77
2023-03-11T00:44:54.527Z,62.51
2023-03-11T00:47:24.774Z,62.50
2023-03-11T00:49:54.762Z,62.52
2023-03-11T00:52:24.873Z,62.49
2023-03-11T00:54:54.993Z,62.78
2023-03-11T00:57:29.303Z,62.48
2023-03-11T00:59:59.632Z,62.37
2023-03-11T01:02:29.814Z,62.57
2023-03-11T01:04:59.856Z,62.80
2023-03-11T01:07:29.887Z,62.78
2023-03-11T01:09:59.911Z,62.98
2023-03-11T01:12:34.795Z,62.90
2023-03-11T01:15:06.183Z,63.11
2023-03-11T01:17:36.224Z,62.73
2023-03-11T01:20:09.282Z,62.98
2023-03-11T01:22:39.507Z,62.90
2023-03-11T01:25:10.447Z,63.19
2023-03-11T01:27:43.221Z,63.38
2023-03-11T01:30:17.643Z,63.28
2023-03-11T01:32:49.125Z,63.19
2023-03-11T01:35:21.339Z,63.42
2023-03-11T01:37:51.562Z,63.46
2023-03-11T01:40:24.479Z,63.53
2023-03-11T01:42:57.121Z,63.68
2023-03-11T01:45:39.862Z,63.67
2023-03-11T01:48:11.761Z,63.75
2023-03-11T01:50:45.981Z,63.79
2023-03-11T01:53:16.984Z,63.70
2023-03-11T01:55:49.350Z,63.79
2023-03-11T01:58:25.774Z,63.80
2023-03-11T02:00:56.595Z,63.78
2023-03-11T02:03:32.290Z,63.84
2023-03-11T02:06:05.594Z,63.72
2023-03-11T02:08:36.899Z,63.81
2023-03-11T02:11:13.364Z,63.84
2023-03-11T02:13:48.464Z,63.95
2023-03-11T02:16:19.373Z,63.88
2023-03-11T02:18:49.480Z,63.83
2023-03-11T02:21:26.977Z,63.99
2023-03-11T02:24:06.235Z,64.22
2023-03-11T02:26:43.568Z,64.31
2023-03-11T02:29:16.909Z,64.23
2023-03-11T02:31:47.551Z,64.44
2023-03-11T02:34:24.502Z,64.18
2023-03-11T02:36:54.828Z,64.36
2023-03-11T02:39:33.254Z,64.27
2023-03-11T02:42:08.537Z,64.35
2023-03-11T02:44:42.656Z,64.35
2023-03-11T02:47:13.312Z,64.30
2023-03-11T02:49:43.827Z,64.26
2023-03-11T02:52:14.094Z,64.32
2023-03-11T02:54:44.234Z,64.54
2023-03-11T02:57:14.371Z,64.57
2023-03-11T02:59:47.165Z,64.80
2023-03-11T03:02:18.119Z,64.71
2023-03-11T03:04:48.268Z,64.77
2023-03-11T03:07:19.275Z,64.82
2023-03-11T03:09:49.551Z,64.86
2023-03-11T03:12:19.707Z,64.69
2023-03-11T03:14:53.128Z,64.78
2023-03-11T03:17:23.206Z,64.76
2023-03-11T03:19:53.994Z,64.63
2023-03-11T03:22:25.249Z,64.60
2023-03-11T03:24:56.197Z,64.81
2023-03-11T03:27:26.263Z,64.67
2023-03-11T03:29:58.932Z,64.56
2023-03-11T03:32:29.241Z,64.46
2023-03-11T03:34:59.705Z,64.65
2023-03-11T03:37:42.448Z,64.71
2023-03-11T03:40:14.495Z,64.90
2023-03-11T03:42:44.642Z,64.81
2023-03-11T03:45:17.730Z,65.01
2023-03-11T03:47:48.395Z,64.95
2023-03-11T03:50:18.540Z,64.99
2023-03-11T03:52:51.104Z,65.08
2023-03-11T03:55:22.027Z,64.99
2023-03-11T03:57:52.442Z,65.07
2023-03-11T04:00:28.441Z,65.25
2023-03-11T04:03:03.030Z,65.09
2023-03-11T04:05:46.966Z,65.15
2023-03-11T04:08:17.723Z,65.12
2023-03-11T04:10:58.915Z,65.18
2023-03-11T04:13:30.309Z,65.18
2023-03-11T04:16:03.061Z,65.18
2023-03-11T04:18:33.786Z,65.53
2023-03-11T04:21:08.263Z,65.68
2023-03-11T04:23:38.652Z,65.72
2023-03-11T04:26:10.430Z,65.59
2023-03-11T04:28:41.714Z,65.76
2023-03-11T04:31:14.582Z,65.89
2023-03-11T04:33:44.958Z,65.83
2023-03-11T04:36:16.156Z,65.61
2023-03-11T04:38:46.817Z,65.74
2023-03-11T04:41:17.879Z,65.85
2023-03-11T04:43:48.850Z,65.56
2023-03-11T04:46:21.952Z,65.60
2023-03-11T04:48:52.232Z,65.53
2023-03-11T04:51:22.308Z,65.64
2023-03-11T04:53:52.639Z,65.60
2023-03-11T04:56:22.848Z,65.77
2023-03-11T04:58:53.519Z,65.65
2023-03-11T05:01:27.656Z,65.69
2023-03-11T05:03:59.151Z,65.56
2023-03-11T05:06:29.223Z,65.62
2023-03-11T05:08:59.294Z,65.54
2023-03-11T05:11:29.757Z,65.53
2023-03-11T05:14:00.030Z,65.53
2023-03-11T05:16:32.794Z,65.58
2023-03-11T05:19:23.219Z,65.53
2023-03-11T05:21:53.360Z,65.71
2023-03-11T05:24:23.310Z,65.78
2023-03-11T05:26:53.559Z,65.66
2023-03-11T05:29:23.879Z,65.53
2023-03-11T05:31:57.165Z,65.98
2023-03-11T05:34:27.473Z,65.93
2023-03-11T05:36:57.502Z,66.08
2023-03-11T05:39:27.724Z,65.78
2023-03-11T05:41:58.209Z,65.93
2023-03-11T05:44:29.595Z,65.88
2023-03-11T05:47:02.965Z,65.66
2023-03-11T05:49:37.745Z,65.56
2023-03-11T05:52:08.801Z,65.43
2023-03-11T05:54:39.309Z,66.21
2023-03-11T05:57:09.558Z,65.61
2023-03-11T05:59:40.213Z,65.15
2023-03-11T06:02:12.740Z,65.02
2023-03-11T06:04:43.768Z,64.81
2023-03-11T06:07:15.498Z,64.91
2023-03-11T06:09:48.273Z,64.63
2023-03-11T06:12:20.966Z,64.49
2023-03-11T06:15:15.966Z,64.52
2023-03-11T06:17:49.045Z,64.66
2023-03-11T06:20:19.266Z,64.56
2023-03-11T06:22:51.593Z,64.22
2023-03-11T06:25:24.973Z,64.13
2023-03-11T06:27:56.761Z,63.97
2023-03-11T06:30:28.310Z,64.10
2023-03-11T06:33:21.174Z,63.77
2023-03-11T06:35:59.768Z,63.69
2023-03-11T06:38:30.277Z,63.95
2023-03-11T06:41:03.850Z,63.80
2023-03-11T06:43:35.443Z,63.63
2023-03-11T06:46:12.570Z,63.58
2023-03-11T06:48:50.163Z,63.40
2023-03-11T06:51:26.579Z,63.39
2023-03-11T06:53:57.335Z,63.83
2023-03-11T06:56:29.045Z,64.27
2023-03-11T06:59:04.923Z,64.32
2023-03-11T07:01:37.113Z,64.42
2023-03-11T07:04:13.253Z,64.20
2023-03-11T07:06:45.651Z,64.22
2023-03-11T07:09:22.415Z,63.88
2023-03-11T07:11:52.620Z,63.94
2023-03-11T07:14:29.061Z,63.96
2023-03-11T07:17:00.653Z,63.98
2023-03-11T07:19:40.453Z,63.68
2023-03-11T07:22:10.433Z,63.69
2023-03-11T07:24:40.552Z,63.41
2023-03-11T07:27:10.766Z,63.01
2023-03-11T07:29:40.881Z,62.51
2023-03-11T07:32:12.259Z,62.24
2023-03-11T07:34:44.863Z,62.55
2023-03-11T07:37:15.421Z,62.46
2023-03-11T07:39:45.558Z,62.42
2023-03-11T07:42:15.578Z,62.56
2023-03-11T07:44:45.907Z,62.18
2023-03-11T07:47:16.216Z,62.04
2023-03-11T07:49:48.869Z,62.00
2023-03-11T07:52:19.038Z,61.49
2023-03-11T07:54:49.127Z,61.01
2023-03-11T07:57:19.975Z,60.71
2023-03-11T07:59:50.171Z,60.18
2023-03-11T08:02:20.228Z,58.74
2023-03-11T08:04:52.828Z,56.88
2023-03-11T08:07:23.034Z,55.11
2023-03-11T08:09:53.018Z,53.66
2023-03-11T08:12:22.931Z,52.47
2023-03-11T08:14:53.060Z,52.11
2023-03-11T08:17:23.062Z,51.38
2023-03-11T08:19:56.110Z,52.27
2023-03-11T08:22:26.277Z,52.56
2023-03-11T08:24:56.687Z,52.43
2023-03-11T08:27:26.693Z,51.68
2023-03-11T08:29:56.684Z,51.71
2023-03-11T08:32:26.718Z,50.44
2023-03-11T08:34:59.407Z,49.15
2023-03-11T08:37:29.702Z,46.68
2023-03-11T08:39:59.986Z,47.43
2023-03-11T08:42:30.007Z,46.83
2023-03-11T08:45:00.142Z,46.10
2023-03-11T08:47:30.974Z,46.25
2023-03-11T08:50:03.547Z,46.54
2023-03-11T08:52:33.935Z,47.23
2023-03-11T08:55:05.084Z,47.33
2023-03-11T08:57:35.124Z,45.80
2023-03-11T09:00:05.259Z,44.65
2023-03-11T09:02:35.508Z,44.48
2023-03-11T09:05:09.290Z,44.11
2023-03-11T09:07:39.497Z,44.49
2023-03-11T09:10:10.486Z,43.74
2023-03-11T09:12:40.469Z,45.31
2023-03-11T09:15:12.054Z,45.24
2023-03-11T09:17:42.056Z,48.94
2023-03-11T09:20:15.725Z,48.21
2023-03-11T09:22:45.754Z,48.52
2023-03-11T09:25:16.997Z,49.76
2023-03-11T09:27:46.943Z,48.50
2023-03-11T09:30:17.606Z,46.83
2023-03-11T09:32:47.634Z,45.80
2023-03-11T09:35:20.893Z,43.66
2023-03-11T09:37:51.068Z,42.01
2023-03-11T09:40:24.421Z,42.06
2023-03-11T09:43:06.626Z,43.64
2023-03-11T09:45:41.429Z,43.15
2023-03-11T09:48:25.373Z,43.94
2023-03-11T09:51:08.345Z,45.38
2023-03-11T09:53:43.777Z,45.65
2023-03-11T09:56:17.664Z,45.63
2023-03-11T09:58:50.795Z,43.58
2023-03-11T10:01:27.723Z,43.65
2023-03-11T10:04:00.632Z,45.07
2023-03-11T10:06:34.358Z,45.74
2023-03-11T10:09:18.700Z,46.31
2023-03-11T10:11:57.161Z,46.37
2023-03-11T10:14:45.254Z,45.96
2023-03-11T10:17:24.988Z,44.49
2023-03-11T10:20:01.627Z,44.50
2023-03-11T10:22:41.180Z,44.52
2023-03-11T10:25:16.577Z,44.45
2023-03-11T10:27:51.518Z,44.54
2023-03-11T10:30:30.451Z,44.55
2023-03-11T10:33:05.745Z,45.13
2023-03-11T10:35:41.077Z,43.86
2023-03-11T10:38:18.720Z,41.68
2023-03-11T10:40:51.259Z,40.62
2023-03-11T10:43:24.593Z,38.68
2023-03-11T10:45:56.183Z,39.46
2023-03-11T10:48:28.427Z,40.79
2023-03-11T10:51:04.565Z,42.80
2023-03-11T10:53:49.446Z,44.30
2023-03-11T10:56:35.512Z,45.53
2023-03-11T10:59:08.723Z,47.06
2023-03-11T11:01:38.815Z,47.76
2023-03-11T11:04:39.706Z,48.31
2023-03-11T11:07:29.396Z,48.83
2023-03-11T11:10:24.278Z,48.93
2023-03-11T11:12:56.977Z,49.26
2023-03-11T11:15:29.270Z,49.51
2023-03-11T11:18:01.941Z,49.93
2023-03-11T11:20:34.697Z,50.27
2023-03-11T11:23:06.848Z,50.09
2023-03-11T11:25:41.978Z,50.44
2023-03-11T11:28:20.087Z,50.51
2023-03-11T11:30:57.095Z,47.22
2023-03-11T11:33:30.286Z,41.92
2023-03-11T11:36:04.168Z,37.91
2023-03-11T11:38:35.890Z,35.50
2023-03-11T11:41:08.813Z,35.35
2023-03-11T11:43:53.283Z,37.48
2023-03-11T11:46:28.073Z,39.58
2023-03-11T11:49:05.765Z,39.72
2023-03-11T11:51:40.380Z,39.51
2023-03-11T11:54:19.959Z,38.47
2023-03-11T11:56:52.642Z,39.35
2023-03-11T11:59:25.560Z,40.06
2023-03-11T12:02:09.156Z,41.49
2023-03-11T12:04:57.480Z,42.19
2023-03-11T12:07:46.264Z,41.41
2023-03-11T12:10:30.655Z,35.08
2023-03-11T12:13:43.686Z,30.10
2023-03-11T12:16:22.925Z,31.65
2023-03-11T12:18:57.294Z,33.61
2023-03-11T12:21:44.431Z,36.43
2023-03-11T12:24:34.136Z,35.90
2023-03-11T12:27:12.318Z,31.01
2023-03-11T12:29:50.679Z,28.61
2023-03-11T12:32:27.797Z,25.14
2023-03-11T12:34:58.068Z,24.60
2023-03-11T12:37:28.207Z,23.53
2023-03-11T12:39:58.300Z,24.34
2023-03-11T12:42:42.473Z,26.43
2023-03-11T12:45:42.513Z,29.71
2023-03-11T12:48:34.702Z,32.90
2023-03-11T12:51:06.235Z,34.37
2023-03-11T12:53:48.081Z,36.92
2023-03-11T12:56:31.129Z,39.03
2023-03-11T12:59:26.882Z,41.37
2023-03-11T13:02:07.441Z,41.93
2023-03-11T13:04:54.132Z,42.57
2023-03-11T13:07:43.475Z,42.56
2023-03-11T13:10:20.805Z,42.43
2023-03-11T13:12:52.460Z,40.69
2023-03-11T13:15:47.559Z,38.65
2023-03-11T13:18:21.338Z,34.50
2023-03-11T13:20:59.417Z,33.51
2023-03-11T13:23:36.490Z,33.80
2023-03-11T13:26:41.848Z,33.00
2023-03-11T13:29:39.097Z,33.14
2023-03-11T13:32:27.657Z,33.66
2023-03-11T13:35:08.405Z,33.14
2023-03-11T13:37:51.478Z,32.19
2023-03-11T13:40:35.829Z,30.59
2023-03-11T13:43:08.418Z,28.86
2023-03-11T13:45:40.414Z,28.51
2023-03-11T13:48:17.575Z,29.26
2023-03-11T13:50:52.233Z,29.72
2023-03-11T13:53:32.558Z,30.77
2023-03-11T13:56:02.702Z,30.05
2023-03-11T13:58:33.105Z,30.81
2023-03-11T14:01:04.848Z,30.42
2023-03-11T14:03:43.260Z,32.03
2023-03-11T14:06:19.472Z,31.94
2023-03-11T14:08:59.980Z,35.31
2023-03-11T14:11:32.064Z,37.65
2023-03-11T14:14:02.519Z,38.00
2023-03-11T14:16:36.272Z,38.79
2023-03-11T14:19:11.131Z,37.91
2023-03-11T14:21:45.031Z,36.22
2023-03-11T14:24:23.741Z,34.58
2023-03-11T14:26:55.892Z,31.95
2023-03-11T14:29:33.593Z,30.40
2023-03-11T14:32:03.972Z,27.73
2023-03-11T14:34:34.174Z,26.89
2023-03-11T14:37:04.975Z,27.98
2023-03-11T14:39:39.386Z,31.03
2023-03-11T14:42:18.913Z,31.81
2023-03-11T14:44:54.130Z,34.28
2023-03-11T14:47:35.129Z,34.83
2023-03-11T14:50:16.033Z,34.02
2023-03-11T14:52:53.236Z,31.47
2023-03-11T14:55:29.875Z,30.01
2023-03-11T14:58:02.793Z,30.22
2023-03-11T15:00:39.112Z,29.95
2023-03-11T15:03:20.765Z,28.84
2023-03-11T15:05:58.280Z,26.60
2023-03-11T15:08:33.014Z,26.17
2023-03-11T15:11:25.929Z,25.21
2023-03-11T15:13:56.619Z,27.30
2023-03-11T15:16:40.681Z,29.45
2023-03-11T15:19:35.017Z,33.00
2023-03-11T15:22:20.590Z,35.72
2023-03-11T15:24:55.268Z,35.47
2023-03-11T15:27:32.908Z,36.64
2023-03-11T15:30:05.004Z,36.55
2023-03-11T15:32:45.021Z,36.89
2023-03-11T15:35:51.659Z,37.47
2023-03-11T15:38:28.569Z,38.30
2023-03-11T15:41:01.059Z,39.65
2023-03-11T15:43:49.430Z,39.61
2023-03-11T15:46:34.668Z,39.29
2023-03-11T15:49:05.763Z,39.56
2023-03-11T15:51:35.882Z,42.48
2023-03-11T15:54:05.922Z,42.32
2023-03-11T15:56:38.244Z,41.15
2023-03-11T15:59:16.153Z,42.08
2023-03-11T16:01:47.323Z,43.35
2023-03-11T16:04:19.408Z,42.84
2023-03-11T16:06:59.625Z,41.01
2023-03-11T16:09:40.701Z,41.87
2023-03-11T16:12:19.685Z,40.93
2023-03-11T16:14:53.776Z,41.06
2023-03-11T16:17:24.462Z,41.20
2023-03-11T16:19:54.505Z,41.52
2023-03-11T16:22:35.185Z,41.78
2023-03-11T16:25:08.818Z,42.23
2023-03-11T16:27:39.230Z,42.25
2023-03-11T16:30:30.725Z,42.48
2023-03-11T16:33:04.739Z,42.25
2023-03-11T16:35:36.030Z,42.62
2023-03-11T16:38:06.412Z,42.45
2023-03-11T16:40:36.965Z,42.49
2023-03-11T16:43:09.679Z,42.67
2023-03-11T16:45:42.677Z,43.06
2023-03-11T16:48:20.196Z,43.06
2023-03-11T16:50:50.304Z,43.39
2023-03-11T16:53:21.588Z,43.62
2023-03-11T16:55:51.667Z,43.87
2023-03-11T16:58:22.070Z,43.95
2023-03-11T17:00:56.173Z,44.37
2023-03-11T17:03:34.457Z,44.64
2023-03-11T17:06:13.867Z,44.91
2023-03-11T17:08:49.563Z,44.97
2023-03-11T17:11:24.793Z,44.83
2023-03-11T17:14:15.616Z,45.08
2023-03-11T17:16:54.802Z,45.17
2023-03-11T17:19:28.646Z,45.38
2023-03-11T17:22:02.891Z,45.69
2023-03-11T17:24:33.679Z,45.81
2023-03-11T17:27:13.944Z,45.96
2023-03-11T17:29:47.184Z,46.04
2023-03-11T17:32:22.160Z,46.41
2023-03-11T17:34:52.616Z,46.49
2023-03-11T17:37:22.976Z,46.63
2023-03-11T17:39:53.496Z,46.85
2023-03-11T17:42:28.730Z,47.11
2023-03-11T17:44:59.778Z,47.27
2023-03-11T17:47:40.214Z,47.57
2023-03-11T17:50:12.292Z,47.43
2023-03-11T17:52:42.439Z,47.81
2023-03-11T17:55:13.101Z,47.94
2023-03-11T17:57:45.757Z,48.13
2023-03-11T18:00:25.469Z,48.18
2023-03-11T18:03:05.644Z,48.39
2023-03-11T18:05:38.170Z,48.66
2023-03-11T18:08:10.045Z,48.86
2023-03-11T18:10:40.294Z,49.22
2023-03-11T18:13:10.501Z,49.54
2023-03-11T18:15:43.368Z,49.60
2023-03-11T18:18:20.390Z,50.22
2023-03-11T18:20:52.415Z,50.23
2023-03-11T18:23:22.796Z,50.31
2023-03-11T18:25:55.946Z,50.79
2023-03-11T18:28:25.915Z,50.58
2023-03-11T18:30:56.641Z,50.55
2023-03-11T18:33:31.768Z,51.01
2023-03-11T18:36:14.212Z,51.10
2023-03-11T18:38:49.079Z,50.99
2023-03-11T18:41:21.154Z,51.18
2023-03-11T18:44:01.249Z,51.42
2023-03-11T18:46:33.326Z,51.40
2023-03-11T18:49:07.735Z,51.45
2023-03-11T18:51:45.755Z,51.65
2023-03-11T18:54:18.329Z,51.58
2023-03-11T18:57:04.466Z,51.73
2023-03-11T18:59:35.422Z,51.79
2023-03-11T19:02:08.447Z,51.69
2023-03-11T19:04:43.621Z,51.69
2023-03-11T19:07:13.835Z,51.90
2023-03-11T19:09:45.778Z,51.99
2023-03-11T19:12:16.975Z,52.23
2023-03-11T19:14:46.977Z,52.47
2023-03-11T19:17:18.479Z,52.42
2023-03-11T19:19:51.251Z,52.74
2023-03-11T19:22:21.411Z,52.86
2023-03-11T19:24:51.424Z,52.89
2023-03-11T19:27:21.960Z,52.87
2023-03-11T19:29:53.220Z,52.86
2023-03-11T19:32:23.457Z,52.95
2023-03-11T19:35:00.219Z,53.17
2023-03-11T19:37:30.435Z,53.39
2023-03-11T19:40:00.482Z,53.53
2023-03-11T19:42:38.040Z,53.19
2023-03-11T19:45:09.434Z,53.20
2023-03-11T19:47:40.212Z,53.49
2023-03-11T19:50:14.138Z,53.56
2023-03-11T19:52:49.687Z,53.50
2023-03-11T19:55:20.537Z,53.60
2023-03-11T19:57:52.897Z,53.77
2023-03-11T20:00:24.134Z,53.68
2023-03-11T20:02:59.727Z,53.77
2023-03-11T20:05:32.446Z,53.70
2023-03-11T20:08:05.057Z,53.63
2023-03-11T20:10:35.921Z,53.96
2023-03-11T20:13:09.183Z,53.64
2023-03-11T20:15:55.462Z,53.52
2023-03-11T20:18:29.751Z,53.53
2023-03-11T20:21:09.230Z,53.44
2023-03-11T20:23:45.218Z,53.61
2023-03-11T20:26:16.897Z,53.36
2023-03-11T20:28:47.284Z,53.47
2023-03-11T20:31:25.068Z,53.26
2023-03-11T20:33:56.934Z,53.30
2023-03-11T20:36:33.271Z,53.38
2023-03-11T20:39:10.976Z,53.32
2023-03-11T20:41:43.165Z,53.37
2023-03-11T20:44:15.602Z,53.19
2023-03-11T20:46:45.975Z,53.21
2023-03-11T20:49:16.043Z,53.08
2023-03-11T20:51:49.101Z,53.13
2023-03-11T20:54:20.627Z,53.22
2023-03-11T20:56:51.410Z,52.97
2023-03-11T20:59:21.549Z,53.22
2023-03-11T21:01:52.192Z,52.98
2023-03-11T21:04:25.641Z,52.93
2023-03-11T21:06:58.711Z,52.78
2023-03-11T21:09:29.066Z,52.81
2023-03-11T21:11:59.164Z,52.58
2023-03-11T21:14:29.724Z,52.53
2023-03-11T21:16:59.918Z,52.68
2023-03-11T21:19:30.150Z,52.44
2023-03-11T21:22:03.058Z,52.43
2023-03-11T21:24:33.199Z,52.25
2023-03-11T21:27:03.647Z,52.37
2023-03-11T21:29:34.030Z,52.45
2023-03-11T21:32:04.187Z,52.30
2023-03-11T21:34:34.480Z,52.26
2023-03-11T21:37:07.187Z,52.44
2023-03-11T21:39:37.405Z,52.16
2023-03-11T21:42:10.916Z,52.38
2023-03-11T21:44:40.983Z,52.14
2023-03-11T21:47:11.316Z,52.44
2023-03-11T21:49:41.445Z,52.51
2023-03-11T21:52:14.217Z,52.51
2023-03-11T21:54:44.294Z,52.63
2023-03-11T21:57:14.400Z,52.45
2023-03-11T21:59:44.518Z,52.50
2023-03-11T22:02:17.799Z,52.66
2023-03-11T22:04:48.603Z,52.58
2023-03-11T22:07:21.340Z,52.67
2023-03-11T22:09:52.133Z,52.68
2023-03-11T22:12:22.217Z,52.81
2023-03-11T22:14:52.442Z,52.99
2023-03-11T22:17:22.729Z,52.77
2023-03-11T22:19:52.969Z,52.78
2023-03-11T22:22:25.799Z,52.80
2023-03-11T22:24:55.840Z,52.89
2023-03-11T22:27:25.864Z,52.73
2023-03-11T22:29:56.004Z,52.74
2023-03-11T22:32:26.396Z,52.82
2023-03-11T22:34:56.458Z,52.92
2023-03-11T22:37:32.260Z,52.60
2023-03-11T22:40:02.317Z,52.59
2023-03-11T22:42:32.323Z,52.69
2023-03-11T22:45:02.497Z,52.64
2023-03-11T22:47:32.734Z,52.80
2023-03-11T22:50:03.250Z,52.69
2023-03-11T22:52:35.859Z,52.55
2023-03-11T22:55:05.934Z,52.71
2023-03-11T22:57:38.912Z,52.59
2023-03-11T23:00:17.282Z,52.58
2023-03-11T23:02:47.792Z,52.54
2023-03-11T23:05:18.595Z,52.26
2023-03-11T23:07:51.455Z,52.11
2023-03-11T23:10:24.120Z,52.20
2023-03-11T23:12:54.371Z,52.01
2023-03-11T23:15:24.490Z,52.04
2023-03-11T23:17:54.664Z,52.03
2023-03-11T23:20:24.766Z,51.99
2023-03-11T23:22:57.485Z,52.12
2023-03-11T23:25:27.807Z,52.07
2023-03-11T23:27:57.991Z,52.08
2023-03-11T23:30:28.376Z,51.94
2023-03-11T23:32:58.502Z,52.06
2023-03-11T23:35:28.881Z,52.28
2023-03-11T23:38:02.363Z,52.33
2023-03-11T23:40:32.421Z,52.45
2023-03-11T23:43:03.322Z,52.51
2023-03-11T23:45:33.749Z,52.50
2023-03-11T23:48:04.269Z,52.48
2023-03-11T23:50:34.484Z,52.50
2023-03-11T23:53:09.464Z,52.56
2023-03-11T23:55:40.345Z,52.64
2023-03-11T23:58:10.700Z,52.76
